Time;durP1;ratioP1;P1;durP2;ratioP2;P2;SDS_P1;SDS_P2;PMS_P1;PMS_P2;Temp;Humidity;BMP_temperature;BMP_pressure;BME280_temperature;BME280_humidity;BME280_pressure;Samples;Min_cycle;Max_cycle;Signal;HPM_P1;HPM_P2
2022/06/21 00:00:06;;;;;;;5.15;1.87;;;;;;;20.78;100.00;98405.67;1733889;82;20984;-60
2022/06/21 00:02:32;;;;;;;4.10;1.50;;;;;;;20.77;100.00;98398.53;1737652;82;21007;-60
2022/06/21 00:04:59;;;;;;;3.98;1.45;;;;;;;20.77;100.00;98399.91;1723484;82;21043;-61
2022/06/21 00:07:27;;;;;;;3.92;1.42;;;;;;;20.73;100.00;98398.48;1713829;82;20999;-60
2022/06/21 00:09:53;;;;;;;3.25;1.45;;;;;;;20.71;100.00;98395.88;1733707;82;21423;-60
2022/06/21 00:12:22;;;;;;;4.95;1.50;;;;;;;20.69;100.00;98385.78;1731289;82;21058;-61
2022/06/21 00:14:49;;;;;;;3.27;1.52;;;;;;;20.69;100.00;98386.55;1742733;82;21043;-61
2022/06/21 00:17:20;;;;;;;4.12;1.75;;;;;;;20.70;100.00;98381.25;1731699;82;21047;-60
2022/06/21 00:19:47;;;;;;;3.47;1.80;;;;;;;20.69;100.00;98377.48;1722348;82;21027;-60
2022/06/21 00:22:17;;;;;;;3.87;1.85;;;;;;;20.66;100.00;98380.97;1722790;82;21039;-60
2022/06/21 00:24:44;;;;;;;4.92;2.30;;;;;;;20.65;100.00;98375.25;1705124;82;20987;-59
2022/06/21 00:27:13;;;;;;;4.55;1.60;;;;;;;20.62;100.00;98371.81;1727581;82;21031;-61
2022/06/21 00:29:40;;;;;;;4.85;1.62;;;;;;;20.64;100.00;98366.15;1726913;82;20995;-60
2022/06/21 00:32:16;;;;;;;4.53;1.82;;;;;;;20.65;100.00;98360.04;1743956;82;21486;-60
2022/06/21 00:34:43;;;;;;;4.65;1.72;;;;;;;20.65;100.00;98366.34;1730350;81;21525;-60
2022/06/21 00:37:17;;;;;;;3.98;1.70;;;;;;;20.67;100.00;98359.07;1726575;82;21631;-60
2022/06/21 00:39:44;;;;;;;3.45;1.52;;;;;;;20.67;100.00;98357.69;1743765;82;21573;-60
2022/06/21 00:42:21;;;;;;;3.47;1.60;;;;;;;20.67;100.00;98359.07;1736550;82;21653;-60
2022/06/21 00:45:02;;;;;;;2.58;1.60;;;;;;;20.66;100.00;98349.17;1723206;82;20983;-60
2022/06/21 00:47:36;;;;;;;6.00;1.70;;;;;;;20.66;99.69;98346.41;1731563;82;21580;-60
2022/06/21 00:50:23;;;;;;;6.97;1.80;;;;;;;20.67;98.76;98347.43;1731599;82;21026;-60
2022/06/21 00:53:28;;;;;;;2.33;1.30;;;;;;;20.69;98.51;98338.16;1661637;82;21082;-60
2022/06/21 00:56:14;;;;;;;4.50;1.77;;;;;;;20.68;97.31;98331.64;1742639;82;21019;-61
2022/06/21 00:58:40;;;;;;;2.10;1.50;;;;;;;20.66;96.78;98329.81;1746830;82;21315;-60
2022/06/21 01:01:28;;;;;;;3.22;1.42;;;;;;;20.65;97.30;98324.87;1728236;82;21046;-60
2022/06/21 01:04:01;;;;;;;3.17;1.47;;;;;;;20.63;96.22;98330.56;1713638;83;21039;-61
2022/06/21 01:06:37;;;;;;;4.65;1.42;;;;;;;20.61;96.89;98324.05;1726859;82;21047;-61
2022/06/21 01:09:07;;;;;;;4.55;1.50;;;;;;;20.58;96.46;98315.09;1731206;82;20924;-61
2022/06/21 01:11:40;;;;;;;3.75;1.60;;;;;;;20.55;96.09;98317.22;1742496;82;21016;-60
2022/06/21 01:14:08;;;;;;;4.00;1.60;;;;;;;20.52;95.68;98305.52;1735027;82;21615;-62
2022/06/21 01:16:34;;;;;;;4.30;1.75;;;;;;;20.50;95.76;98295.44;1732104;82;21000;-60
2022/06/21 01:19:02;;;;;;;3.22;1.30;;;;;;;20.48;96.24;98299.72;1730106;82;21862;-60
2022/06/21 01:21:31;;;;;;;4.05;1.37;;;;;;;20.45;95.58;98288.02;1683540;84;21043;-61
2022/06/21 01:24:07;;;;;;;2.87;1.60;;;;;;;20.43;97.79;98300.05;1728911;82;21031;-61
2022/06/21 01:26:49;;;;;;;2.27;1.37;;;;;;;20.38;97.93;98302.53;1728884;82;21047;-61
2022/06/21 01:29:18;;;;;;;3.15;1.30;;;;;;;20.33;99.19;98304.25;1723188;82;21042;-60
2022/06/21 01:31:46;;;;;;;3.65;1.60;;;;;;;20.28;98.11;98297.64;1727610;82;21086;-61
2022/06/21 01:34:20;;;;;;;4.83;1.67;;;;;;;20.25;98.21;98292.83;1726590;82;21865;-60
2022/06/21 01:36:49;;;;;;;5.42;1.50;;;;;;;20.20;98.71;98291.16;1732195;82;21087;-61
2022/06/21 01:39:20;;;;;;;4.20;1.50;;;;;;;20.16;99.28;98286.16;1729470;82;21627;-61
2022/06/21 01:41:52;;;;;;;4.15;1.70;;;;;;;20.13;100.00;98288.86;1727701;82;21664;-61
2022/06/21 01:44:28;;;;;;;4.17;2.02;;;;;;;20.07;100.00;98291.73;1726534;82;20975;-60
2022/06/21 01:46:54;;;;;;;5.17;1.42;;;;;;;20.01;100.00;98282.97;1728912;82;21015;-60
2022/06/21 01:49:23;;;;;;;3.35;1.70;;;;;;;19.96;100.00;98279.12;1728814;82;21639;-60
2022/06/21 01:52:01;;;;;;;4.50;1.50;;;;;;;19.94;100.00;98277.90;1731757;82;21031;-60
2022/06/21 01:54:30;;;;;;;4.05;1.32;;;;;;;19.91;100.00;98283.55;1739517;82;21613;-60
2022/06/21 01:56:57;;;;;;;6.10;1.60;;;;;;;19.87;100.00;98281.34;1729884;82;21585;-60
2022/06/21 01:59:27;;;;;;;3.72;1.45;;;;;;;19.84;100.00;98279.28;1669807;85;21039;-60
2022/06/21 02:02:03;;;;;;;3.35;1.57;;;;;;;19.81;100.00;98271.16;1684715;84;21046;-60
2022/06/21 02:04:33;;;;;;;2.02;1.30;;;;;;;19.78;100.00;98272.48;1738343;82;21023;-61
2022/06/21 02:07:06;;;;;;;4.58;1.80;;;;;;;19.75;100.00;98275.98;1738875;82;21039;-61
2022/06/21 02:09:41;;;;;;;3.62;1.52;;;;;;;19.74;100.00;98263.33;1735514;82;21011;-61
2022/06/21 02:12:11;;;;;;;3.35;1.50;;;;;;;19.72;100.00;98272.00;1732181;82;21035;-61
2022/06/21 02:14:43;;;;;;;6.20;1.60;;;;;;;19.71;100.00;98259.35;1740479;82;21050;-61
2022/06/21 02:17:23;;;;;;;5.40;1.77;;;;;;;19.73;100.00;98257.62;1724034;82;21039;-61
2022/06/21 02:20:01;;;;;;;3.35;1.52;;;;;;;19.73;100.00;98253.48;1743003;82;21058;-60
2022/06/21 02:22:29;;;;;;;4.97;1.45;;;;;;;19.74;100.00;98250.91;1736801;82;21027;-60
2022/06/21 02:24:55;;;;;;;3.52;1.40;;;;;;;19.73;100.00;98254.86;1735746;82;21474;-60
2022/06/21 02:27:25;;;;;;;5.28;1.20;;;;;;;19.73;100.00;98256.23;1739957;82;21086;-60
2022/06/21 02:29:54;;;;;;;2.05;1.30;;;;;;;19.75;100.00;98253.31;1713615;82;20999;-60
2022/06/21 02:32:32;;;;;;;3.77;1.42;;;;;;;19.76;100.00;98249.98;1727011;82;21468;-60
2022/06/21 02:35:28;;;;;;;4.47;1.40;;;;;;;19.78;100.00;98245.67;1732141;82;21003;-60
2022/06/21 02:37:57;;;;;;;3.33;1.40;;;;;;;19.79;100.00;98247.28;1721370;82;21110;-60
2022/06/21 02:40:30;;;;;;;3.40;1.77;;;;;;;19.80;100.00;98245.31;1640767;85;21027;-61
2022/06/21 02:43:05;;;;;;;1.72;1.20;;;;;;;19.83;100.00;98230.77;1735240;82;21071;-60
2022/06/21 02:45:37;;;;;;;3.22;1.30;;;;;;;19.87;100.00;98228.88;1731928;82;21003;-60
2022/06/21 02:48:08;;;;;;;3.58;1.20;;;;;;;19.93;100.00;98226.58;1729229;82;21055;-61
2022/06/21 02:50:49;;;;;;;5.78;1.30;;;;;;;19.99;100.00;98219.57;1710273;82;21011;-61
2022/06/21 02:53:21;;;;;;;2.30;1.27;;;;;;;20.04;100.00;98225.59;1733024;82;21043;-61
2022/06/21 02:55:53;;;;;;;4.22;1.50;;;;;;;20.10;100.00;98215.02;1726818;82;20979;-61
2022/06/21 02:58:40;;;;;;;3.12;1.25;;;;;;;20.15;100.00;98220.24;1724096;82;21058;-61
2022/06/21 03:01:20;;;;;;;4.70;1.32;;;;;;;20.20;100.00;98228.20;1721055;82;21058;-62
2022/06/21 03:03:47;;;;;;;2.65;1.00;;;;;;;20.24;100.00;98217.42;1729736;82;21435;-62
2022/06/21 03:06:15;;;;;;;5.58;1.07;;;;;;;20.28;100.00;98213.36;1729139;82;21027;-62
2022/06/21 03:08:58;;;;;;;3.50;1.05;;;;;;;20.34;100.00;98214.62;1732531;82;21475;-63
2022/06/21 03:11:28;;;;;;;3.33;1.30;;;;;;;20.43;100.00;98207.46;1725182;82;21027;-62
2022/06/21 03:13:55;;;;;;;5.92;1.27;;;;;;;20.57;100.00;98206.28;1736557;82;20959;-62
2022/06/21 03:16:22;;;;;;;4.53;1.40;;;;;;;20.75;100.00;98201.20;1731677;82;21055;-62
2022/06/21 03:18:52;;;;;;;4.70;1.50;;;;;;;20.98;100.00;98212.72;1714065;82;20983;-59
2022/06/21 03:21:26;;;;;;;3.52;1.12;;;;;;;21.19;100.00;98210.23;1727470;81;21078;-59
2022/06/21 03:23:52;;;;;;;4.22;1.40;;;;;;;21.40;100.00;98204.92;1738816;82;20968;-59
2022/06/21 03:26:19;;;;;;;3.62;1.22;;;;;;;21.68;100.00;98201.66;1723790;82;21555;-59
2022/06/21 03:28:45;;;;;;;2.30;1.17;;;;;;;21.94;100.00;98195.97;1741783;82;21023;-60
2022/06/21 03:31:37;;;;;;;3.35;1.37;;;;;;;22.18;100.00;98198.12;1737084;82;21036;-62
2022/06/21 03:34:11;;;;;;;2.47;1.37;;;;;;;22.41;98.23;98186.00;1717591;82;21052;-61
2022/06/21 03:36:38;;;;;;;3.50;1.12;;;;;;;22.67;97.45;98198.28;1699443;82;21067;-62
2022/06/21 03:39:09;;;;;;;2.58;1.37;;;;;;;22.84;95.39;98190.62;1730684;82;20979;-63
2022/06/21 03:41:45;;;;;;;4.15;1.40;;;;;;;23.06;92.38;98195.67;1722188;82;21020;-62
2022/06/21 03:44:24;;;;;;;;;;;;;;;23.28;90.23;98187.59;1695742;82;20972;-62
2022/06/21 03:47:04;;;;;;;4.55;1.30;;;;;;;23.67;90.87;98181.55;1723261;82;20105;-62
2022/06/21 03:49:54;;;;;;;4.12;1.40;;;;;;;23.67;90.87;98181.55;1722766;82;21566;-63
2022/06/21 03:52:41;;;;;;;4.15;1.25;;;;;;;23.90;85.54;98178.39;1722680;82;21031;-63
2022/06/21 03:55:16;;;;;;;3.40;1.52;;;;;;;24.14;84.46;98178.99;1728084;82;21187;-62
2022/06/21 03:57:51;;;;;;;3.33;1.30;;;;;;;24.38;80.47;98171.80;1724182;82;21058;-63
2022/06/21 04:00:18;;;;;;;4.83;1.40;;;;;;;24.62;82.38;98178.52;1734274;82;21011;-63
2022/06/21 04:02:58;;;;;;;5.10;1.32;;;;;;;24.91;80.92;98166.09;1727348;82;21601;-63
2022/06/21 04:05:48;;;;;;;3.20;1.55;;;;;;;25.19;80.67;98170.72;1736492;82;21062;-63
2022/06/21 04:08:25;;;;;;;3.40;1.37;;;;;;;25.48;76.12;98181.89;1736920;82;21519;-63
2022/06/21 04:11:09;;;;;;;3.12;1.12;;;;;;;25.69;74.01;98173.41;1723033;82;21502;-63
2022/06/21 04:13:54;;;;;;;3.20;1.27;;;;;;;25.90;73.71;98168.27;1717531;82;20952;-63
2022/06/21 04:16:35;;;;;;;3.63;1.20;;;;;;;25.97;72.90;98168.21;1729012;82;21004;-64
2022/06/21 04:19:10;;;;;;;2.98;1.10;;;;;;;26.04;69.16;98164.59;1718682;82;21007;-63
2022/06/21 04:21:54;;;;;;;2.98;1.10;;;;;;;26.09;67.77;98170.50;1716882;82;21704;-60
2022/06/21 04:24:47;;;;;;;3.98;1.47;;;;;;;26.18;69.87;98169.44;1722508;82;21068;-61
2022/06/21 04:27:24;;;;;;;2.72;1.20;;;;;;;26.30;66.57;98168.14;1736919;82;21094;-60
2022/06/21 04:29:59;;;;;;;4.12;1.20;;;;;;;26.31;68.29;98162.76;1742714;81;21023;-62
2022/06/21 04:32:33;;;;;;;5.05;1.52;;;;;;;26.42;68.49;98163.45;1731993;82;21023;-61
2022/06/21 04:35:22;;;;;;;3.77;1.50;;;;;;;26.49;67.08;98150.81;1732207;82;21004;-62
2022/06/21 04:37:54;;;;;;;3.40;1.00;;;;;;;26.56;67.95;98149.94;1715380;83;21055;-61
2022/06/21 04:40:28;;;;;;;4.30;1.20;;;;;;;26.74;67.10;98144.94;1740162;82;21047;-60
2022/06/21 04:43:12;;;;;;;3.87;1.67;;;;;;;26.80;67.06;98136.28;1735887;82;21506;-61
2022/06/21 04:45:57;;;;;;;3.92;1.00;;;;;;;26.99;67.02;98135.69;1734426;82;21019;-62
2022/06/21 04:48:32;;;;;;;3.65;1.25;;;;;;;27.19;67.18;98137.20;1719423;82;20999;-62
2022/06/21 04:51:03;;;;;;;3.87;1.42;;;;;;;27.43;67.44;98136.04;1733380;82;20987;-63
2022/06/21 04:53:47;;;;;;;3.42;1.22;;;;;;;27.56;66.07;98137.69;1721778;82;21593;-63
2022/06/21 04:56:25;;;;;;;3.77;1.20;;;;;;;27.69;66.92;98135.88;1735026;82;21486;-62
2022/06/21 04:58:53;;;;;;;3.55;1.35;;;;;;;27.93;64.46;98129.07;1728086;82;20999;-61
2022/06/21 05:01:37;;;;;;;3.55;1.65;;;;;;;28.20;63.32;98133.84;1701854;82;21873;-61
2022/06/21 05:04:11;;;;;;;7.78;1.80;;;;;;;28.40;61.47;98138.25;1715490;82;20968;-61
2022/06/21 05:06:38;;;;;;;3.87;1.40;;;;;;;28.52;60.98;98123.60;1716775;82;21637;-62
2022/06/21 05:09:05;;;;;;;4.62;1.50;;;;;;;28.76;61.78;98131.98;1737462;82;20964;-61
2022/06/21 05:11:34;;;;;;;6.20;1.62;;;;;;;29.06;60.87;98131.11;1725119;82;20999;-60
2022/06/21 05:14:26;;;;;;;6.78;1.70;;;;;;;29.07;60.62;98136.91;1713099;83;20983;-59
2022/06/21 05:16:54;;;;;;;4.55;2.10;;;;;;;28.83;60.67;98117.83;1727979;82;21023;-60
2022/06/21 05:19:32;;;;;;;2.62;1.55;;;;;;;29.00;62.05;98124.45;1735614;82;20971;-61
2022/06/21 05:22:11;;;;;;;3.77;1.72;;;;;;;29.27;61.50;98137.48;1737030;81;21607;-62
2022/06/21 05:24:38;;;;;;;3.50;1.42;;;;;;;29.20;61.25;98122.20;1725111;82;21023;-63
2022/06/21 05:27:18;;;;;;;6.10;1.67;;;;;;;29.13;62.14;98121.76;1725699;82;21054;-62
2022/06/21 05:30:06;;;;;;;3.25;1.35;;;;;;;29.25;62.40;98134.31;1725974;82;20999;-63
2022/06/21 05:35:28;;;;;;;4.78;1.80;;;;;;;29.57;64.05;98125.98;1885167;76;22752;-61
2022/06/21 05:38:11;;;;;;;4.95;1.65;;;;;;;29.68;63.01;98127.92;1854361;77;20984;-60
2022/06/21 05:41:06;;;;;;;5.05;1.80;;;;;;;29.90;64.18;98119.16;1794467;76;20978;-61
2022/06/21 05:43:45;;;;;;;3.52;1.50;;;;;;;30.24;60.51;98117.91;1829606;76;21284;-62
2022/06/21 05:46:19;;;;;;;6.17;1.77;;;;;;;30.38;59.52;98116.11;1834933;77;20968;-61
2022/06/21 05:48:46;;;;;;;4.65;1.80;;;;;;;30.58;60.48;98135.02;1855238;77;21112;-61
2022/06/21 05:51:17;;;;;;;5.33;1.70;;;;;;;30.46;58.67;98122.53;1843070;76;20937;-60
2022/06/21 05:53:47;;;;;;;3.17;1.60;;;;;;;30.27;60.69;98121.23;1839629;77;21479;-61
2022/06/21 05:56:17;;;;;;;4.90;1.70;;;;;;;30.21;60.34;98113.18;1853790;77;21015;-59
2022/06/21 05:58:48;;;;;;;4.08;1.72;;;;;;;30.23;62.33;98114.30;1822848;77;20996;-59
2022/06/21 06:01:56;;;;;;;5.42;1.82;;;;;;;30.31;64.96;98111.48;1822126;79;21440;-59
2022/06/21 06:04:59;;;;;;;5.35;1.77;;;;;;;30.60;64.50;98108.71;1787236;79;21038;-60
2022/06/21 06:07:31;;;;;;;5.40;1.90;;;;;;;30.91;64.29;98098.56;1828216;77;21031;-61
2022/06/21 06:09:59;;;;;;;4.90;1.92;;;;;;;30.87;63.53;98103.49;1833556;76;21058;-61
2022/06/21 06:12:32;;;;;;;5.12;1.77;;;;;;;30.75;62.90;98094.41;1849595;77;21045;-60
2022/06/21 06:15:26;;;;;;;5.92;2.40;;;;;;;30.91;64.84;98090.75;1781276;80;20960;-60
2022/06/21 06:18:07;;;;;;;7.87;2.05;;;;;;;30.89;62.83;98094.63;1717251;81;21049;-62
2022/06/21 06:20:50;;;;;;;4.20;1.90;;;;;;;30.91;67.18;98094.34;1787132;79;21041;-63
2022/06/21 06:23:31;;;;;;;7.47;2.20;;;;;;;31.07;65.24;98088.66;1793233;79;21048;-62
2022/06/21 06:26:16;;;;;;;4.97;2.00;;;;;;;31.09;67.86;98096.65;1792175;79;21640;-62
2022/06/21 06:28:57;;;;;;;6.55;2.37;;;;;;;31.30;64.18;98088.16;1806270;79;20981;-62
2022/06/21 06:31:52;;;;;;;8.10;2.22;;;;;;;31.13;63.66;98081.88;1814425;79;21025;-62
2022/06/21 06:34:23;;;;;;;4.90;2.60;;;;;;;30.85;69.04;98078.49;1806577;79;21053;-60
2022/06/21 06:36:54;;;;;;;7.22;2.33;;;;;;;31.12;67.22;98078.09;1805370;79;20990;-61
2022/06/21 06:39:24;;;;;;;8.73;2.85;;;;;;;31.00;72.46;98076.22;1798865;79;21018;-61
2022/06/21 06:42:09;;;;;;;6.53;2.45;;;;;;;31.08;72.22;98074.78;1800050;77;21430;-61
2022/06/21 06:44:42;;;;;;;6.00;2.20;;;;;;;31.22;75.03;98067.13;1809162;79;21004;-62
2022/06/21 06:47:16;;;;;;;4.28;2.40;;;;;;;31.58;71.36;98070.41;1789677;79;21021;-64
2022/06/21 06:49:52;;;;;;;5.47;2.40;;;;;;;31.74;68.71;98068.09;1790821;79;20977;-64
2022/06/21 06:52:31;;;;;;;6.70;2.50;;;;;;;31.82;66.41;98064.56;1794259;79;21583;-62
2022/06/21 06:55:11;;;;;;;4.33;2.60;;;;;;;31.59;64.63;98064.95;1803605;79;21165;-62
2022/06/21 06:57:57;;;;;;;5.75;2.50;;;;;;;31.42;68.05;98055.84;1799520;79;21435;-63
2022/06/21 07:00:31;;;;;;;8.63;2.27;;;;;;;31.39;68.35;98066.56;1786188;79;20998;-61
2022/06/21 07:03:06;;;;;;;4.22;2.12;;;;;;;31.61;71.77;98072.31;1801167;79;21014;-62
2022/06/21 07:06:02;;;;;;;5.05;2.52;;;;;;;31.83;70.15;98063.95;1801710;79;20938;-62
2022/06/21 07:08:58;;;;;;;7.87;2.43;;;;;;;31.81;68.49;98070.05;1793304;79;20935;-61
2022/06/21 07:11:44;;;;;;;7.08;2.40;;;;;;;31.80;69.66;98051.58;1807628;79;21592;-63
2022/06/21 07:14:22;;;;;;;6.58;2.50;;;;;;;31.96;73.08;98066.89;1807915;79;20994;-63
2022/06/21 07:17:00;;;;;;;4.20;2.17;;;;;;;32.16;69.82;98065.85;1798901;79;21001;-64
2022/06/21 07:19:26;;;;;;;6.40;2.45;;;;;;;32.33;66.46;98057.38;1771918;79;21042;-63
2022/06/21 07:21:53;;;;;;;5.25;2.45;;;;;;;32.30;65.94;98059.09;1787868;79;21028;-62
2022/06/21 07:24:20;;;;;;;4.97;2.20;;;;;;;32.01;64.56;98052.25;1714401;82;20970;-63
2022/06/21 07:26:58;;;;;;;3.33;1.90;;;;;;;32.00;67.17;98052.08;1764545;79;21346;-64
2022/06/21 07:29:35;;;;;;;6.50;2.37;;;;;;;32.00;67.88;98054.09;1791084;79;20999;-63
2022/06/21 07:32:08;;;;;;;5.47;2.20;;;;;;;32.01;68.24;98052.86;1774141;79;21002;-63
2022/06/21 07:34:47;;;;;;;7.03;2.35;;;;;;;31.88;65.12;98048.70;1799755;79;20973;-61
2022/06/21 07:37:25;;;;;;;7.10;2.05;;;;;;;32.00;69.80;98054.89;1798222;79;21017;-62
2022/06/21 07:40:00;;;;;;;3.98;2.00;;;;;;;32.25;67.87;98049.02;1815819;79;21028;-61
2022/06/21 07:43:07;;;;;;;6.12;2.10;;;;;;;32.51;67.73;98051.89;1810920;79;21058;-62
2022/06/21 07:45:50;;;;;;;5.92;2.55;;;;;;;32.58;67.72;98048.80;1811900;77;21035;-60
2022/06/21 07:48:27;;;;;;;5.37;1.87;;;;;;;32.67;62.07;98035.42;1801803;79;21033;-63
2022/06/21 07:51:01;;;;;;;6.47;2.30;;;;;;;32.70;59.91;98041.56;1810913;79;21500;-63
2022/06/21 07:53:34;;;;;;;4.87;2.20;;;;;;;32.64;60.16;98039.16;1788029;79;20998;-62
2022/06/21 07:56:17;;;;;;;3.45;2.00;;;;;;;32.61;61.22;98035.23;1808125;79;21409;-61
2022/06/21 07:58:52;;;;;;;5.65;2.00;;;;;;;32.61;59.03;98042.28;1807628;79;20918;-62
2022/06/21 08:07:35;;;;;;;4.55;2.00;;;;;;;33.31;63.24;98030.27;1786810;79;20993;-61
2022/06/21 08:10:24;;;;;;;3.37;1.82;;;;;;;33.53;59.01;98032.38;1797580;79;21013;-60
2022/06/21 08:12:52;;;;;;;5.65;2.50;;;;;;;33.39;58.57;98029.36;1794154;79;21652;-61
2022/06/21 08:15:22;;;;;;;6.12;1.60;;;;;;;33.39;58.03;98032.97;1791824;79;21029;-60
2022/06/21 08:17:59;;;;;;;6.08;2.00;;;;;;;33.47;57.99;98035.67;1808823;79;21566;-61
2022/06/21 08:20:39;;;;;;;6.53;1.92;;;;;;;33.64;56.32;98030.55;1798527;79;21009;-60
2022/06/21 08:23:09;;;;;;;4.08;1.80;;;;;;;33.84;54.07;98031.52;1804806;79;20986;-60
2022/06/21 08:25:55;;;;;;;5.53;2.00;;;;;;;33.83;52.45;98023.70;1775156;79;21177;-60
2022/06/21 08:28:39;;;;;;;5.90;1.85;;;;;;;33.76;52.76;98022.59;1816533;79;21060;-61
2022/06/21 08:31:14;;;;;;;5.20;2.08;;;;;;;33.81;55.42;98023.37;1797952;79;21013;-61
2022/06/21 08:33:46;;;;;;;3.80;1.60;;;;;;;33.96;53.97;98024.33;1796701;79;20982;-62
2022/06/21 08:36:24;;;;;;;5.87;1.90;;;;;;;34.22;54.13;98036.13;1794066;79;21009;-62
2022/06/21 08:39:01;;;;;;;6.37;2.22;;;;;;;34.53;52.93;98031.70;1789624;79;21454;-61
2022/06/21 08:42:00;;;;;;;6.28;1.95;;;;;;;34.73;50.35;98039.06;1785830;79;21022;-61
2022/06/21 08:48:27;;;;;;;6.72;1.90;;;;;;;34.05;50.58;98027.01;1748466;79;21019;-62
2022/06/21 08:51:24;;;;;;;5.67;1.57;;;;;;;33.14;55.67;98036.01;1771010;80;21050;-61
2022/06/21 08:54:05;;;;;;;4.20;2.00;;;;;;;32.77;56.92;98021.56;1805980;79;20960;-61
2022/06/21 08:56:44;;;;;;;5.22;2.02;;;;;;;32.62;59.38;98021.33;1796944;79;21001;-62
2022/06/21 08:59:43;;;;;;;3.65;1.62;;;;;;;32.68;57.20;98022.91;1778967;79;20971;-60
2022/06/21 09:02:55;;;;;;;6.90;1.80;;;;;;;32.77;61.33;98020.16;1763937;79;21034;-61
2022/06/21 09:06:16;;;;;;;3.02;1.60;;;;;;;32.69;59.73;98019.64;1783861;79;21477;-60
2022/06/21 09:09:04;;;;;;;6.30;2.70;;;;;;;32.36;59.65;98020.65;1790600;79;20955;-61
2022/06/21 09:11:57;;;;;;;5.95;1.80;;;;;;;32.23;62.81;98027.59;1796239;79;21101;-60
2022/06/21 09:14:35;;;;;;;8.58;2.12;;;;;;;32.06;62.30;98024.94;1777284;79;21014;-61
2022/06/21 09:17:38;;;;;;;4.97;2.10;;;;;;;32.14;58.88;98016.25;1780974;78;21006;-62
2022/06/21 09:20:28;;;;;;;5.53;2.08;;;;;;;32.18;58.56;98019.72;1776800;78;21532;-61
2022/06/21 09:23:15;;;;;;;6.47;2.30;;;;;;;31.91;62.55;98016.04;1779531;79;21085;-61
2022/06/21 09:25:53;;;;;;;5.33;2.05;;;;;;;31.57;64.38;98017.59;1782526;78;20962;-61
2022/06/21 09:28:43;;;;;;;6.47;2.50;;;;;;;31.31;66.17;98007.61;1784674;79;20998;-61
2022/06/21 09:31:41;;;;;;;6.85;2.85;;;;;;;30.90;70.37;98011.91;1764920;79;20959;-61
2022/06/21 09:34:17;;;;;;;6.15;2.30;;;;;;;30.47;76.62;98011.79;1765199;79;21568;-62
2022/06/21 09:37:06;;;;;;;5.75;2.58;;;;;;;30.31;77.06;98016.66;1789876;79;21601;-62
2022/06/21 09:39:44;;;;;;;7.03;2.30;;;;;;;30.22;81.92;98013.73;1772201;79;20974;-61
2022/06/21 09:42:24;;;;;;;4.67;2.30;;;;;;;29.96;79.03;98031.87;1752961;79;21097;-60
2022/06/21 09:45:14;;;;;;;7.33;2.55;;;;;;;29.43;84.26;98023.41;1757496;80;21018;-63
2022/06/21 09:48:04;;;;;;;6.62;2.42;;;;;;;28.90;89.22;98027.45;1785252;79;21003;-61
2022/06/21 09:50:58;;;;;;;5.10;2.70;;;;;;;28.41;96.55;98027.86;1781945;79;21021;-60
2022/06/21 09:54:09;;;;;;;6.65;2.85;;;;;;;28.17;100.00;98027.16;1780601;79;20990;-62
2022/06/21 09:57:00;;;;;;;9.63;3.10;;;;;;;28.13;100.00;98036.22;1779337;80;21035;-60
2022/06/21 10:00:10;;;;;;;7.20;3.20;;;;;;;27.96;100.00;98048.52;1790902;78;21018;-59
2022/06/21 10:03:06;;;;;;;8.08;2.80;;;;;;;27.93;100.00;98047.97;1750327;80;21596;-60
2022/06/21 10:06:14;;;;;;;11.10;2.72;;;;;;;27.99;100.00;98050.45;1749730;80;21014;-59
2022/06/21 10:08:47;;;;;;;8.30;2.80;;;;;;;27.74;100.00;98045.15;1710892;78;21603;-60
2022/06/21 10:11:46;;;;;;;6.22;2.37;;;;;;;27.50;100.00;98045.73;1790742;78;20987;-60
2022/06/21 10:14:42;;;;;;;9.28;2.58;;;;;;;27.44;100.00;98054.41;1772678;79;20999;-60
2022/06/21 10:17:35;;;;;;;6.50;2.77;;;;;;;27.25;100.00;98053.70;1778481;78;21580;-60
2022/06/21 10:20:28;;;;;;;9.35;3.17;;;;;;;26.96;100.00;98045.75;1780042;80;21010;-60
2022/06/21 10:23:44;;;;;;;6.30;2.67;;;;;;;26.66;100.00;98049.34;1804216;77;21024;-61
2022/06/21 10:26:46;;;;;;;6.78;2.98;;;;;;;26.56;100.00;98042.51;1788048;78;20967;-60
2022/06/21 10:29:38;;;;;;;6.37;2.92;;;;;;;26.54;100.00;98031.75;1763805;80;20963;-61
2022/06/21 10:32:30;;;;;;;6.05;2.67;;;;;;;26.38;100.00;98035.75;1754661;79;21019;-61
2022/06/21 10:35:36;;;;;;;8.08;3.10;;;;;;;26.17;100.00;98024.83;1779668;80;21014;-60
2022/06/21 10:38:32;;;;;;;7.80;2.98;;;;;;;25.94;100.00;98024.07;1781470;79;21064;-61
2022/06/21 10:42:46;;;;;;;6.33;3.60;;;;;;;25.64;100.00;98020.61;1792182;79;20959;-62
2022/06/21 10:44:25;;;;;;;9.80;3.85;;;;;;;25.63;100.00;98036.34;1776115;80;20992;-61
2022/06/21 10:46:55;;;;;;;10.28;4.25;;;;;;;25.81;100.00;98041.74;1786052;78;21085;-59
2022/06/21 10:49:42;;;;;;;7.80;4.70;;;;;;;25.87;100.00;98053.42;1732570;80;21023;-61
2022/06/21 10:52:48;;;;;;;7.67;4.37;;;;;;;25.90;100.00;98042.06;1795293;77;22049;-62
2022/06/21 10:55:48;;;;;;;9.98;5.40;;;;;;;25.92;100.00;98053.58;1795850;78;21434;-62
2022/06/21 10:58:31;;;;;;;8.35;5.40;;;;;;;25.79;100.00;98056.08;1795874;79;21527;-62
2022/06/21 11:01:18;;;;;;;7.75;5.15;;;;;;;25.65;100.00;98056.20;1790728;77;21037;-62
2022/06/21 11:04:29;;;;;;;10.18;5.10;;;;;;;25.61;100.00;98063.84;1800763;79;21537;-64
2022/06/21 11:07:05;;;;;;;9.93;5.90;;;;;;;25.64;100.00;98067.19;1798120;77;21075;-61
2022/06/21 11:09:52;;;;;;;10.48;5.47;;;;;;;25.59;100.00;98074.58;1779433;80;21052;-60
2022/06/21 11:15:56;;;;;;;10.00;6.60;;;;;;;25.09;100.00;98089.44;1750708;79;20979;-61
2022/06/21 11:18:34;;;;;;;8.40;5.92;;;;;;;24.62;100.00;98112.51;1804662;78;21602;-62
2022/06/21 11:21:06;;;;;;;9.93;5.33;;;;;;;24.16;100.00;98135.52;1772859;79;20988;-61
2022/06/21 11:26:44;;;;;;;9.55;1.60;;;;;;;23.29;100.00;98185.02;1731283;78;73213;-69
2022/06/21 11:29:36;;;;;;;4.15;1.15;;;;;;;22.10;100.00;98190.97;1681649;82;21010;-69
2022/06/21 11:32:51;;;;;;;2.65;0.98;;;;;;;21.09;100.00;98193.70;1720203;82;21051;-71
2022/06/21 11:35:44;;;;;;;3.60;1.10;;;;;;;20.36;100.00;98210.92;1720317;82;21054;-72
2022/06/21 11:38:32;;;;;;;6.87;1.05;;;;;;;19.84;100.00;98245.57;1726430;82;21636;-70
2022/06/21 11:42:04;;;;;;;3.50;1.33;;;;;;;19.51;100.00;98289.55;1711780;83;21670;-63
2022/06/21 11:43:57;;;;;;;6.33;2.10;;;;;;;19.19;100.00;98293.02;1745597;81;21007;-67
2022/06/21 11:46:43;;;;;;;4.65;1.75;;;;;;;18.86;100.00;98325.78;1735482;81;21064;-67
2022/06/21 11:49:37;;;;;;;3.20;1.20;;;;;;;18.39;100.00;98316.18;1728436;81;21054;-65
2022/06/21 11:52:15;;;;;;;2.90;1.00;;;;;;;18.00;100.00;98304.77;1736025;81;21687;-67
2022/06/21 11:54:47;;;;;;;4.92;0.78;;;;;;;17.66;100.00;98322.77;1731986;81;20941;-64
2022/06/21 11:57:41;;;;;;;1.52;0.60;;;;;;;17.37;100.00;98320.58;1711766;83;21023;-64
2022/06/21 12:00:23;;;;;;;1.45;0.40;;;;;;;17.21;100.00;98303.81;1702675;83;21107;-66
2022/06/21 12:02:59;;;;;;;1.85;0.53;;;;;;;17.11;100.00;98284.46;1720830;82;20989;-64
2022/06/21 12:05:43;;;;;;;1.72;0.53;;;;;;;17.06;100.00;98314.16;1716376;82;21674;-65
2022/06/21 12:08:29;;;;;;;1.55;0.50;;;;;;;17.00;100.00;98303.20;1711711;82;20965;-63
2022/06/21 12:11:15;;;;;;;4.65;0.57;;;;;;;16.99;100.00;98320.83;1680010;83;21471;-62
2022/06/21 12:13:54;;;;;;;2.20;0.50;;;;;;;16.90;100.00;98326.45;1715410;82;21468;-66
2022/06/21 12:16:44;;;;;;;2.15;0.70;;;;;;;16.89;100.00;98320.75;1701843;83;21132;-65
2022/06/21 12:19:18;;;;;;;4.03;0.70;;;;;;;16.91;100.00;98332.98;1716446;83;21591;-64
2022/06/21 12:21:52;;;;;;;2.83;0.80;;;;;;;16.93;100.00;98343.05;1717851;82;21053;-64
2022/06/21 12:24:20;;;;;;;1.27;0.62;;;;;;;16.91;100.00;98332.18;1736223;81;21606;-64
2022/06/21 12:26:47;;;;;;;2.10;0.57;;;;;;;16.82;100.00;98316.41;1688883;82;21078;-64
2022/06/21 12:29:17;;;;;;;3.35;0.80;;;;;;;16.81;100.00;98320.30;1730903;81;21050;-63
2022/06/21 12:31:51;;;;;;;2.20;0.62;;;;;;;16.86;100.00;98337.33;1735283;81;21073;-64
2022/06/21 12:34:40;;;;;;;1.50;0.55;;;;;;;16.95;100.00;98317.97;1739947;82;21030;-65
2022/06/21 12:37:11;;;;;;;1.40;0.47;;;;;;;17.10;100.00;98305.45;1731180;83;21022;-64
2022/06/21 12:39:52;;;;;;;2.08;0.60;;;;;;;17.28;100.00;98326.02;1722832;81;21038;-64
2022/06/21 12:42:43;;;;;;;0.75;0.53;;;;;;;17.50;100.00;98323.29;1720639;82;21437;-65
2022/06/21 12:45:45;;;;;;;1.92;0.60;;;;;;;17.77;100.00;98326.04;1721203;82;21074;-65